sensor_id;sensor_type;location;lat;lon;timestamp;pressure;altitude;pressure_sealevel;temperature;humidity
13869;BME280;7004;48.206;16.402;2023-02-04T00:01:37;99728.59;;;7.76;62.88
13869;BME280;7004;48.206;16.402;2023-02-04T00:04:03;99718.59;;;7.65;63.50
13869;BME280;7004;48.206;16.402;2023-02-04T00:06:30;99722.19;;;7.64;64.24
13869;BME280;7004;48.206;16.402;2023-02-04T00:08:56;99720.63;;;7.60;64.16
13869;BME280;7004;48.206;16.402;2023-02-04T00:11:22;99721.78;;;7.72;64.57
13869;BME280;7004;48.206;16.402;2023-02-04T00:13:48;99709.75;;;7.50;64.27
13869;BME280;7004;48.206;16.402;2023-02-04T00:16:15;99719.47;;;7.99;63.27
13869;BME280;7004;48.206;16.402;2023-02-04T00:18:42;99727.66;;;7.59;65.49
13869;BME280;7004;48.206;16.402;2023-02-04T00:21:08;99734.53;;;7.79;63.23
13869;BME280;7004;48.206;16.402;2023-02-04T00:23:34;99731.41;;;7.55;64.69
13869;BME280;7004;48.206;16.402;2023-02-04T00:26:00;99721.84;;;7.70;63.55
13869;BME280;7004;48.206;16.402;2023-02-04T00:28:27;99722.78;;;7.69;63.68
13869;BME280;7004;48.206;16.402;2023-02-04T00:30:53;99711.31;;;7.70;62.90
13869;BME280;7004;48.206;16.402;2023-02-04T00:33:19;99722.41;;;7.77;63.71
13869;BME280;7004;48.206;16.402;2023-02-04T00:35:45;99704.09;;;7.91;62.26
13869;BME280;7004;48.206;16.402;2023-02-04T00:38:12;99712.66;;;7.79;63.72
13869;BME280;7004;48.206;16.402;2023-02-04T00:40:40;99716.06;;;7.63;61.59
13869;BME280;7004;48.206;16.402;2023-02-04T00:43:06;99705.59;;;7.79;61.86
13869;BME280;7004;48.206;16.402;2023-02-04T00:45:32;99714.16;;;7.83;60.43
13869;BME280;7004;48.206;16.402;2023-02-04T00:47:58;99697.72;;;7.79;60.44
13869;BME280;7004;48.206;16.402;2023-02-04T00:50:25;99693.66;;;7.90;59.31
13869;BME280;7004;48.206;16.402;2023-02-04T00:52:51;99706.59;;;7.94;60.17
13869;BME280;7004;48.206;16.402;2023-02-04T00:55:18;99690.84;;;7.93;58.47
13869;BME280;7004;48.206;16.402;2023-02-04T00:57:44;99685.84;;;7.88;57.46
13869;BME280;7004;48.206;16.402;2023-02-04T01:00:14;99684.47;;;7.81;58.34
13869;BME280;7004;48.206;16.402;2023-02-04T01:02:40;99686.47;;;8.09;56.87
13869;BME280;7004;48.206;16.402;2023-02-04T01:05:08;99677.25;;;8.18;57.18
13869;BME280;7004;48.206;16.402;2023-02-04T01:07:35;99681.91;;;8.13;56.77
13869;BME280;7004;48.206;16.402;2023-02-04T01:10:04;99677.81;;;8.07;56.01
13869;BME280;7004;48.206;16.402;2023-02-04T01:12:31;99668.44;;;8.01;56.27
13869;BME280;7004;48.206;16.402;2023-02-04T01:14:57;99670.94;;;8.04;56.21
13869;BME280;7004;48.206;16.402;2023-02-04T01:17:24;99655.75;;;8.25;55.68
13869;BME280;7004;48.206;16.402;2023-02-04T01:19:50;99660.66;;;8.16;55.64
13869;BME280;7004;48.206;16.402;2023-02-04T01:22:16;99665.78;;;7.85;56.12
13869;BME280;7004;48.206;16.402;2023-02-04T01:24:43;99664.25;;;8.30;54.70
13869;BME280;7004;48.206;16.402;2023-02-04T01:27:09;99667.63;;;8.17;54.44
13869;BME280;7004;48.206;16.402;2023-02-04T01:29:35;99654.53;;;7.83;55.33
13869;BME280;7004;48.206;16.402;2023-02-04T01:32:01;99660.56;;;8.01;55.57
13869;BME280;7004;48.206;16.402;2023-02-04T01:34:27;99659.28;;;8.08;56.71
13869;BME280;7004;48.206;16.402;2023-02-04T01:36:56;99658.44;;;8.08;56.52
13869;BME280;7004;48.206;16.402;2023-02-04T01:39:22;99662.69;;;8.10;58.90
13869;BME280;7004;48.206;16.402;2023-02-04T01:41:48;99676.53;;;7.98;60.58
13869;BME280;7004;48.206;16.402;2023-02-04T01:44:14;99672.19;;;7.97;59.83
13869;BME280;7004;48.206;16.402;2023-02-04T01:46:41;99667.84;;;7.96;60.01
13869;BME280;7004;48.206;16.402;2023-02-04T01:49:08;99666.09;;;7.63;60.12
13869;BME280;7004;48.206;16.402;2023-02-04T01:51:36;99657.34;;;7.63;60.64
13869;BME280;7004;48.206;16.402;2023-02-04T01:54:02;99659.28;;;7.93;60.36
13869;BME280;7004;48.206;16.402;2023-02-04T01:56:29;99659.88;;;7.98;61.43
13869;BME280;7004;48.206;16.402;2023-02-04T01:58:56;99666.59;;;8.03;61.70
13869;BME280;7004;48.206;16.402;2023-02-04T02:01:53;99659.69;;;7.85;61.72
13869;BME280;7004;48.206;16.402;2023-02-04T02:04:29;99655.66;;;7.78;61.89
13869;BME280;7004;48.206;16.402;2023-02-04T02:06:59;99666.38;;;7.75;61.87
13869;BME280;7004;48.206;16.402;2023-02-04T02:09:29;99651.56;;;8.05;59.30
13869;BME280;7004;48.206;16.402;2023-02-04T02:11:56;99658.94;;;7.99;58.44
13869;BME280;7004;48.206;16.402;2023-02-04T02:14:23;99682.97;;;7.93;58.35
13869;BME280;7004;48.206;16.402;2023-02-04T02:16:49;99665.06;;;7.99;57.35
13869;BME280;7004;48.206;16.402;2023-02-04T02:19:25;99654.22;;;8.21;56.03
13869;BME280;7004;48.206;16.402;2023-02-04T02:22:24;99648.34;;;8.00;56.19
13869;BME280;7004;48.206;16.402;2023-02-04T02:24:53;99652.63;;;7.85;57.18
13869;BME280;7004;48.206;16.402;2023-02-04T02:27:20;99640.56;;;8.30;55.79
13869;BME280;7004;48.206;16.402;2023-02-04T02:29:46;99645.53;;;8.03;56.27
13869;BME280;7004;48.206;16.402;2023-02-04T02:32:13;99638.00;;;8.13;56.46
13869;BME280;7004;48.206;16.402;2023-02-04T02:34:41;99631.47;;;8.04;55.87
13869;BME280;7004;48.206;16.402;2023-02-04T02:37:09;99649.69;;;7.92;56.58
13869;BME280;7004;48.206;16.402;2023-02-04T02:39:37;99640.63;;;8.13;56.09
13869;BME280;7004;48.206;16.402;2023-02-04T02:42:08;99625.06;;;8.24;55.85
13869;BME280;7004;48.206;16.402;2023-02-04T02:44:35;99633.22;;;8.04;55.25
13869;BME280;7004;48.206;16.402;2023-02-04T02:47:01;99638.53;;;8.20;55.08
13869;BME280;7004;48.206;16.402;2023-02-04T02:49:30;99632.19;;;8.06;55.53
13869;BME280;7004;48.206;16.402;2023-02-04T02:51:57;99624.81;;;8.13;56.11
13869;BME280;7004;48.206;16.402;2023-02-04T02:54:28;99630.50;;;8.21;55.93
13869;BME280;7004;48.206;16.402;2023-02-04T02:56:56;99656.41;;;7.97;56.23
13869;BME280;7004;48.206;16.402;2023-02-04T02:59:24;99655.03;;;8.06;56.47
13869;BME280;7004;48.206;16.402;2023-02-04T03:01:56;99642.75;;;8.22;56.54
13869;BME280;7004;48.206;16.402;2023-02-04T03:04:24;99636.44;;;8.09;56.60
13869;BME280;7004;48.206;16.402;2023-02-04T03:06:51;99624.69;;;7.83;57.61
13869;BME280;7004;48.206;16.402;2023-02-04T03:09:19;99639.00;;;8.10;55.72
13869;BME280;7004;48.206;16.402;2023-02-04T03:11:45;99629.00;;;8.33;56.97
13869;BME280;7004;48.206;16.402;2023-02-04T03:14:12;99626.78;;;8.09;56.94
13869;BME280;7004;48.206;16.402;2023-02-04T03:16:38;99618.63;;;8.14;56.19
13869;BME280;7004;48.206;16.402;2023-02-04T03:19:07;99637.03;;;8.14;56.08
13869;BME280;7004;48.206;16.402;2023-02-04T03:21:34;99629.66;;;8.05;55.81
13869;BME280;7004;48.206;16.402;2023-02-04T03:24:04;99647.56;;;7.98;58.11
13869;BME280;7004;48.206;16.402;2023-02-04T03:26:30;99652.94;;;8.13;58.24
13869;BME280;7004;48.206;16.402;2023-02-04T03:28:58;99630.50;;;8.05;58.66
13869;BME280;7004;48.206;16.402;2023-02-04T03:31:25;99650.09;;;7.84;58.68
13869;BME280;7004;48.206;16.402;2023-02-04T03:33:51;99618.59;;;7.98;58.41
13869;BME280;7004;48.206;16.402;2023-02-04T03:36:17;99637.81;;;8.00;57.58
13869;BME280;7004;48.206;16.402;2023-02-04T03:38:43;99652.59;;;8.03;57.54
13869;BME280;7004;48.206;16.402;2023-02-04T03:41:09;99649.97;;;8.19;56.96
13869;BME280;7004;48.206;16.402;2023-02-04T03:43:35;99636.97;;;8.00;58.76
13869;BME280;7004;48.206;16.402;2023-02-04T03:46:02;99649.34;;;7.98;58.14
13869;BME280;7004;48.206;16.402;2023-02-04T03:48:28;99678.91;;;7.70;59.00
13869;BME280;7004;48.206;16.402;2023-02-04T03:50:54;99684.31;;;7.84;59.21
13869;BME280;7004;48.206;16.402;2023-02-04T03:53:20;99658.03;;;7.66;59.35
13869;BME280;7004;48.206;16.402;2023-02-04T03:55:47;99684.63;;;7.78;58.96
13869;BME280;7004;48.206;16.402;2023-02-04T03:58:13;99699.88;;;7.71;61.07
13869;BME280;7004;48.206;16.402;2023-02-04T04:00:39;99716.31;;;7.59;64.18
13869;BME280;7004;48.206;16.402;2023-02-04T04:03:05;99685.28;;;7.13;69.05
13869;BME280;7004;48.206;16.402;2023-02-04T04:05:31;99700.59;;;7.22;69.14
13869;BME280;7004;48.206;16.402;2023-02-04T04:07:57;99711.28;;;7.19;70.83
13869;BME280;7004;48.206;16.402;2023-02-04T04:10:24;99690.81;;;6.90;71.67
13869;BME280;7004;48.206;16.402;2023-02-04T04:12:50;99718.06;;;6.51;78.26
13869;BME280;7004;48.206;16.402;2023-02-04T04:15:17;99746.94;;;6.32;83.67
13869;BME280;7004;48.206;16.402;2023-02-04T04:17:43;99756.97;;;6.43;83.23
13869;BME280;7004;48.206;16.402;2023-02-04T04:20:10;99772.41;;;6.30;81.86
13869;BME280;7004;48.206;16.402;2023-02-04T04:22:37;99812.38;;;6.37;79.91
13869;BME280;7004;48.206;16.402;2023-02-04T04:25:04;99835.34;;;6.12;80.25
13869;BME280;7004;48.206;16.402;2023-02-04T04:27:31;99840.25;;;6.20;79.79
13869;BME280;7004;48.206;16.402;2023-02-04T04:29:57;99844.06;;;5.91;82.71
13869;BME280;7004;48.206;16.402;2023-02-04T04:32:24;99842.84;;;5.79;84.15
13869;BME280;7004;48.206;16.402;2023-02-04T04:34:50;99857.41;;;5.86;80.60
13869;BME280;7004;48.206;16.402;2023-02-04T04:37:16;99884.31;;;6.12;80.24
13869;BME280;7004;48.206;16.402;2023-02-04T04:39:42;99885.78;;;5.77;79.63
13869;BME280;7004;48.206;16.402;2023-02-04T04:42:08;99891.94;;;5.76;78.45
13869;BME280;7004;48.206;16.402;2023-02-04T04:44:34;99892.34;;;5.87;77.31
13869;BME280;7004;48.206;16.402;2023-02-04T04:47:01;99906.59;;;5.81;77.58
13869;BME280;7004;48.206;16.402;2023-02-04T04:49:28;99919.09;;;6.17;74.50
13869;BME280;7004;48.206;16.402;2023-02-04T04:51:54;99940.00;;;6.20;73.40
13869;BME280;7004;48.206;16.402;2023-02-04T04:54:20;99931.31;;;5.98;71.26
13869;BME280;7004;48.206;16.402;2023-02-04T04:56:46;99926.72;;;5.59;69.14
13869;BME280;7004;48.206;16.402;2023-02-04T04:59:12;99952.88;;;5.82;64.29
13869;BME280;7004;48.206;16.402;2023-02-04T05:01:38;99950.25;;;5.82;66.09
13869;BME280;7004;48.206;16.402;2023-02-04T05:04:04;99963.06;;;5.68;63.60
13869;BME280;7004;48.206;16.402;2023-02-04T05:06:30;99974.03;;;5.56;61.37
13869;BME280;7004;48.206;16.402;2023-02-04T05:08:56;99979.28;;;5.78;58.98
13869;BME280;7004;48.206;16.402;2023-02-04T05:11:22;100004.88;;;5.49;59.26
13869;BME280;7004;48.206;16.402;2023-02-04T05:13:48;99994.47;;;5.47;58.39
13869;BME280;7004;48.206;16.402;2023-02-04T05:16:15;99998.56;;;5.77;58.88
13869;BME280;7004;48.206;16.402;2023-02-04T05:18:42;100010.94;;;5.73;58.77
13869;BME280;7004;48.206;16.402;2023-02-04T05:21:08;99984.78;;;5.72;56.77
13869;BME280;7004;48.206;16.402;2023-02-04T05:23:34;100013.81;;;5.67;56.82
13869;BME280;7004;48.206;16.402;2023-02-04T05:26:00;100020.38;;;5.79;55.34
13869;BME280;7004;48.206;16.402;2023-02-04T05:28:26;100038.63;;;5.58;57.70
13869;BME280;7004;48.206;16.402;2023-02-04T05:30:52;100031.19;;;5.24;57.80
13869;BME280;7004;48.206;16.402;2023-02-04T05:33:18;100047.19;;;5.63;56.91
13869;BME280;7004;48.206;16.402;2023-02-04T05:35:44;100046.94;;;5.46;57.61
13869;BME280;7004;48.206;16.402;2023-02-04T05:38:10;100082.81;;;5.20;57.13
13869;BME280;7004;48.206;16.402;2023-02-04T05:40:36;100077.66;;;5.89;55.93
13869;BME280;7004;48.206;16.402;2023-02-04T05:43:02;100088.78;;;5.49;56.34
13869;BME280;7004;48.206;16.402;2023-02-04T05:45:29;100071.13;;;5.54;56.49
13869;BME280;7004;48.206;16.402;2023-02-04T05:47:56;100087.00;;;5.50;57.39
13869;BME280;7004;48.206;16.402;2023-02-04T05:50:21;100099.47;;;5.19;57.99
13869;BME280;7004;48.206;16.402;2023-02-04T05:52:48;100091.47;;;5.24;57.62
13869;BME280;7004;48.206;16.402;2023-02-04T05:55:14;100119.09;;;5.08;57.79
13869;BME280;7004;48.206;16.402;2023-02-04T05:57:40;100125.72;;;5.18;56.76
13869;BME280;7004;48.206;16.402;2023-02-04T06:00:07;100143.88;;;5.24;56.87
13869;BME280;7004;48.206;16.402;2023-02-04T06:02:33;100134.91;;;5.04;57.20
13869;BME280;7004;48.206;16.402;2023-02-04T06:04:59;100169.38;;;5.44;56.79
13869;BME280;7004;48.206;16.402;2023-02-04T06:07:25;100169.00;;;5.30;56.57
13869;BME280;7004;48.206;16.402;2023-02-04T06:09:51;100184.22;;;5.45;56.64
13869;BME280;7004;48.206;16.402;2023-02-04T06:12:17;100189.00;;;5.57;55.79
13869;BME280;7004;48.206;16.402;2023-02-04T06:14:43;100212.22;;;5.18;56.74
13869;BME280;7004;48.206;16.402;2023-02-04T06:17:09;100222.31;;;5.55;56.68
13869;BME280;7004;48.206;16.402;2023-02-04T06:19:35;100243.34;;;5.54;56.42
13869;BME280;7004;48.206;16.402;2023-02-04T06:22:02;100241.13;;;5.41;56.19
13869;BME280;7004;48.206;16.402;2023-02-04T06:24:28;100256.13;;;5.63;56.26
13869;BME280;7004;48.206;16.402;2023-02-04T06:26:54;100284.28;;;5.83;56.09
13869;BME280;7004;48.206;16.402;2023-02-04T06:29:20;100278.03;;;5.35;56.08
13869;BME280;7004;48.206;16.402;2023-02-04T06:31:48;100282.88;;;4.93;56.98
13869;BME280;7004;48.206;16.402;2023-02-04T06:34:14;100306.69;;;5.13;56.92
13869;BME280;7004;48.206;16.402;2023-02-04T06:36:41;100301.22;;;4.93;57.84
13869;BME280;7004;48.206;16.402;2023-02-04T06:39:07;100323.91;;;4.64;59.02
13869;BME280;7004;48.206;16.402;2023-02-04T06:41:33;100335.88;;;5.02;59.05
13869;BME280;7004;48.206;16.402;2023-02-04T06:43:59;100327.16;;;5.02;59.19
13869;BME280;7004;48.206;16.402;2023-02-04T06:46:25;100336.31;;;5.17;58.70
13869;BME280;7004;48.206;16.402;2023-02-04T06:48:51;100353.75;;;5.18;57.40
13869;BME280;7004;48.206;16.402;2023-02-04T06:51:17;100370.63;;;4.79;59.41
13869;BME280;7004;48.206;16.402;2023-02-04T06:53:43;100370.41;;;5.15;59.57
13869;BME280;7004;48.206;16.402;2023-02-04T06:56:11;100369.34;;;4.63;60.25
13869;BME280;7004;48.206;16.402;2023-02-04T06:58:37;100367.28;;;4.74;59.84
13869;BME280;7004;48.206;16.402;2023-02-04T07:01:03;100401.50;;;4.68;58.70
13869;BME280;7004;48.206;16.402;2023-02-04T07:03:31;100425.38;;;4.57;58.17
13869;BME280;7004;48.206;16.402;2023-02-04T07:05:58;100412.34;;;4.23;59.16
13869;BME280;7004;48.206;16.402;2023-02-04T07:08:24;100435.06;;;4.21;60.55
13869;BME280;7004;48.206;16.402;2023-02-04T07:10:50;100432.03;;;4.04;61.97
13869;BME280;7004;48.206;16.402;2023-02-04T07:13:16;100447.97;;;4.29;61.61
13869;BME280;7004;48.206;16.402;2023-02-04T07:15:43;100465.53;;;4.56;61.42
13869;BME280;7004;48.206;16.402;2023-02-04T07:18:09;100462.84;;;4.27;60.94
13869;BME280;7004;48.206;16.402;2023-02-04T07:20:35;100465.34;;;4.31;60.14
13869;BME280;7004;48.206;16.402;2023-02-04T07:23:01;100473.41;;;4.22;60.83
13869;BME280;7004;48.206;16.402;2023-02-04T07:25:27;100504.59;;;4.66;59.29
13869;BME280;7004;48.206;16.402;2023-02-04T07:27:53;100498.75;;;4.20;60.25
13869;BME280;7004;48.206;16.402;2023-02-04T07:30:21;100519.09;;;4.45;59.19
13869;BME280;7004;48.206;16.402;2023-02-04T07:32:47;100549.97;;;3.94;59.82
13869;BME280;7004;48.206;16.402;2023-02-04T07:35:13;100566.53;;;3.95;57.34
13869;BME280;7004;48.206;16.402;2023-02-04T07:37:40;100563.44;;;4.15;56.25
13869;BME280;7004;48.206;16.402;2023-02-04T07:40:07;100575.47;;;4.22;55.32
13869;BME280;7004;48.206;16.402;2023-02-04T07:42:33;100589.00;;;4.41;54.52
13869;BME280;7004;48.206;16.402;2023-02-04T07:44:59;100601.56;;;3.88;53.46
13869;BME280;7004;48.206;16.402;2023-02-04T07:47:25;100603.88;;;3.61;53.62
13869;BME280;7004;48.206;16.402;2023-02-04T07:49:51;100619.91;;;4.25;51.58
13869;BME280;7004;48.206;16.402;2023-02-04T07:52:23;100634.72;;;3.87;51.63
13869;BME280;7004;48.206;16.402;2023-02-04T07:54:49;100640.72;;;4.31;52.47
13869;BME280;7004;48.206;16.402;2023-02-04T07:57:18;100633.56;;;3.99;52.92
13869;BME280;7004;48.206;16.402;2023-02-04T07:59:44;100639.38;;;4.13;54.13
13869;BME280;7004;48.206;16.402;2023-02-04T08:02:10;100657.53;;;4.20;54.90
13869;BME280;7004;48.206;16.402;2023-02-04T08:04:38;100669.88;;;3.74;56.81
13869;BME280;7004;48.206;16.402;2023-02-04T08:07:04;100683.31;;;3.98;58.32
13869;BME280;7004;48.206;16.402;2023-02-04T08:09:30;100693.03;;;3.91;60.40
13869;BME280;7004;48.206;16.402;2023-02-04T08:11:56;100699.56;;;3.70;59.24
13869;BME280;7004;48.206;16.402;2023-02-04T08:14:25;100696.88;;;3.73;58.38
13869;BME280;7004;48.206;16.402;2023-02-04T08:16:51;100700.66;;;4.03;59.66
13869;BME280;7004;48.206;16.402;2023-02-04T08:19:17;100721.53;;;3.61;60.51
13869;BME280;7004;48.206;16.402;2023-02-04T08:21:46;100710.31;;;3.55;60.93
13869;BME280;7004;48.206;16.402;2023-02-04T08:24:13;100712.31;;;3.87;59.38
13869;BME280;7004;48.206;16.402;2023-02-04T08:26:41;100715.97;;;3.78;56.88
13869;BME280;7004;48.206;16.402;2023-02-04T08:29:08;100723.88;;;4.19;55.69
13869;BME280;7004;48.206;16.402;2023-02-04T08:31:35;100746.72;;;3.67;55.13
13869;BME280;7004;48.206;16.402;2023-02-04T08:34:04;100735.88;;;3.85;54.97
13869;BME280;7004;48.206;16.402;2023-02-04T08:36:30;100748.09;;;3.85;54.44
13869;BME280;7004;48.206;16.402;2023-02-04T08:38:57;100758.63;;;3.82;54.02
13869;BME280;7004;48.206;16.402;2023-02-04T08:41:23;100758.22;;;4.02;53.39
13869;BME280;7004;48.206;16.402;2023-02-04T08:43:49;100756.06;;;4.22;52.89
13869;BME280;7004;48.206;16.402;2023-02-04T08:46:15;100760.06;;;3.97;53.17
13869;BME280;7004;48.206;16.402;2023-02-04T08:48:41;100760.25;;;3.87;52.68
13869;BME280;7004;48.206;16.402;2023-02-04T08:51:07;100777.69;;;4.32;52.14
13869;BME280;7004;48.206;16.402;2023-02-04T08:53:34;100768.59;;;4.48;51.73
13869;BME280;7004;48.206;16.402;2023-02-04T08:56:00;100781.63;;;4.90;51.19
13869;BME280;7004;48.206;16.402;2023-02-04T08:58:26;100796.69;;;4.40;51.27
13869;BME280;7004;48.206;16.402;2023-02-04T09:00:52;100804.06;;;4.65;49.63
13869;BME280;7004;48.206;16.402;2023-02-04T09:03:18;100818.50;;;4.41;49.50
13869;BME280;7004;48.206;16.402;2023-02-04T09:05:44;100823.59;;;5.26;48.37
13869;BME280;7004;48.206;16.402;2023-02-04T09:08:10;100827.72;;;5.70;48.19
13869;BME280;7004;48.206;16.402;2023-02-04T09:10:36;100844.56;;;5.62;47.91
13869;BME280;7004;48.206;16.402;2023-02-04T09:13:03;100848.19;;;5.58;48.71
13869;BME280;7004;48.206;16.402;2023-02-04T09:15:29;100883.25;;;5.16;49.70
13869;BME280;7004;48.206;16.402;2023-02-04T09:17:55;100873.06;;;5.02;50.79
13869;BME280;7004;48.206;16.402;2023-02-04T09:20:29;100880.91;;;4.19;52.19
13869;BME280;7004;48.206;16.402;2023-02-04T09:22:55;100887.69;;;4.29;54.23
13869;BME280;7004;48.206;16.402;2023-02-04T09:25:21;100889.03;;;4.03;54.30
13869;BME280;7004;48.206;16.402;2023-02-04T09:27:47;100900.25;;;4.10;54.93
13869;BME280;7004;48.206;16.402;2023-02-04T09:30:14;100905.44;;;4.13;56.28
13869;BME280;7004;48.206;16.402;2023-02-04T09:32:40;100912.84;;;3.88;55.76
13869;BME280;7004;48.206;16.402;2023-02-04T09:35:06;100913.75;;;3.87;55.70
13869;BME280;7004;48.206;16.402;2023-02-04T09:37:33;100944.41;;;3.77;57.05
13869;BME280;7004;48.206;16.402;2023-02-04T09:39:59;100951.56;;;3.66;55.58
13869;BME280;7004;48.206;16.402;2023-02-04T09:42:26;100950.94;;;3.48;55.71
13869;BME280;7004;48.206;16.402;2023-02-04T09:44:53;100942.59;;;3.81;54.62
13869;BME280;7004;48.206;16.402;2023-02-04T09:47:22;100965.84;;;3.42;54.08
13869;BME280;7004;48.206;16.402;2023-02-04T09:49:48;100959.56;;;3.55;55.08
13869;BME280;7004;48.206;16.402;2023-02-04T09:52:16;100964.06;;;4.03;52.86
13869;BME280;7004;48.206;16.402;2023-02-04T09:54:43;100961.19;;;3.62;53.31
13869;BME280;7004;48.206;16.402;2023-02-04T09:57:18;100978.41;;;3.76;51.38
13869;BME280;7004;48.206;16.402;2023-02-04T09:59:45;100968.13;;;4.21;51.75
13869;BME280;7004;48.206;16.402;2023-02-04T10:02:25;100976.59;;;3.81;52.43
13869;BME280;7004;48.206;16.402;2023-02-04T10:04:56;100973.50;;;3.56;52.00
13869;BME280;7004;48.206;16.402;2023-02-04T10:07:23;100981.47;;;3.45;51.21
13869;BME280;7004;48.206;16.402;2023-02-04T10:09:52;100990.41;;;3.89;49.82
13869;BME280;7004;48.206;16.402;2023-02-04T10:12:19;100992.72;;;4.09;49.37
13869;BME280;7004;48.206;16.402;2023-02-04T10:14:46;100987.38;;;3.61;50.29
13869;BME280;7004;48.206;16.402;2023-02-04T10:17:17;100993.13;;;3.84;50.00
13869;BME280;7004;48.206;16.402;2023-02-04T10:19:44;101010.72;;;3.73;49.91
13869;BME280;7004;48.206;16.402;2023-02-04T10:22:19;101005.03;;;4.53;49.67
13869;BME280;7004;48.206;16.402;2023-02-04T10:24:46;101017.06;;;4.15;49.65
13869;BME280;7004;48.206;16.402;2023-02-04T10:27:13;101020.16;;;4.39;49.56
13869;BME280;7004;48.206;16.402;2023-02-04T10:29:54;101017.72;;;4.27;49.16
13869;BME280;7004;48.206;16.402;2023-02-04T10:32:31;101045.75;;;4.20;47.77
13869;BME280;7004;48.206;16.402;2023-02-04T10:35:00;101035.38;;;4.14;47.79
13869;BME280;7004;48.206;16.402;2023-02-04T10:37:27;101033.28;;;3.79;47.12
13869;BME280;7004;48.206;16.402;2023-02-04T10:39:55;101050.38;;;4.57;46.26
13869;BME280;7004;48.206;16.402;2023-02-04T10:42:29;101042.00;;;4.36;44.39
13869;BME280;7004;48.206;16.402;2023-02-04T10:44:56;101027.94;;;4.41;44.27
13869;BME280;7004;48.206;16.402;2023-02-04T10:47:28;101047.09;;;4.94;43.91
13869;BME280;7004;48.206;16.402;2023-02-04T10:50:14;101035.38;;;5.54;43.33
13869;BME280;7004;48.206;16.402;2023-02-04T10:52:55;101037.69;;;5.27;42.90
13869;BME280;7004;48.206;16.402;2023-02-04T10:55:43;101027.34;;;6.36;40.73
13869;BME280;7004;48.206;16.402;2023-02-04T10:58:16;100998.78;;;5.86;41.39
13869;BME280;7004;48.206;16.402;2023-02-04T11:00:43;101030.47;;;5.77;40.55
13869;BME280;7004;48.206;16.402;2023-02-04T11:03:26;101006.38;;;4.76;41.09
13869;BME280;7004;48.206;16.402;2023-02-04T11:05:57;101034.53;;;5.10;41.15
13869;BME280;7004;48.206;16.402;2023-02-04T11:08:33;101046.97;;;4.52;42.33
13869;BME280;7004;48.206;16.402;2023-02-04T11:13:43;101044.38;;;4.98;42.25
13869;BME280;7004;48.206;16.402;2023-02-04T11:19:08;101070.75;;;4.38;46.70
13869;BME280;7004;48.206;16.402;2023-02-04T11:24:22;101089.72;;;3.98;50.41
13869;BME280;7004;48.206;16.402;2023-02-04T11:29:37;101093.34;;;4.45;50.18
13869;BME280;7004;48.206;16.402;2023-02-04T11:32:33;101082.75;;;5.44;48.10
13869;BME280;7004;48.206;16.402;2023-02-04T11:37:42;101078.94;;;4.72;49.50
13869;BME280;7004;48.206;16.402;2023-02-04T11:40:33;101078.69;;;6.12;47.62
13869;BME280;7004;48.206;16.402;2023-02-04T11:43:07;101078.28;;;5.91;47.00
13869;BME280;7004;48.206;16.402;2023-02-04T11:45:36;101079.41;;;5.80;47.49
13869;BME280;7004;48.206;16.402;2023-02-04T11:48:14;101084.19;;;5.61;47.53
13869;BME280;7004;48.206;16.402;2023-02-04T11:50:42;101091.66;;;5.79;45.22
13869;BME280;7004;48.206;16.402;2023-02-04T11:53:11;101092.53;;;5.78;45.83
13869;BME280;7004;48.206;16.402;2023-02-04T11:55:44;101106.91;;;5.62;44.98
13869;BME280;7004;48.206;16.402;2023-02-04T11:58:17;101095.19;;;6.17;45.78
13869;BME280;7004;48.206;16.402;2023-02-04T12:00:45;101103.94;;;5.35;45.02
13869;BME280;7004;48.206;16.402;2023-02-04T12:03:31;101114.88;;;5.12;45.92
13869;BME280;7004;48.206;16.402;2023-02-04T12:06:01;101119.50;;;4.98;46.09
13869;BME280;7004;48.206;16.402;2023-02-04T12:08:34;101133.91;;;4.18;46.77
13869;BME280;7004;48.206;16.402;2023-02-04T12:11:28;101150.16;;;4.40;46.42
13869;BME280;7004;48.206;16.402;2023-02-04T12:14:08;101149.06;;;4.55;47.85
13869;BME280;7004;48.206;16.402;2023-02-04T12:16:45;101137.41;;;4.73;46.13
13869;BME280;7004;48.206;16.402;2023-02-04T12:19:11;101144.44;;;4.69;45.07
13869;BME280;7004;48.206;16.402;2023-02-04T12:21:38;101133.44;;;4.49;43.94
13869;BME280;7004;48.206;16.402;2023-02-04T12:24:05;101136.59;;;4.13;45.10
13869;BME280;7004;48.206;16.402;2023-02-04T12:26:31;101122.94;;;3.91;45.75
13869;BME280;7004;48.206;16.402;2023-02-04T12:28:57;101124.69;;;3.92;45.85
13869;BME280;7004;48.206;16.402;2023-02-04T12:31:28;101119.28;;;4.05;46.36
13869;BME280;7004;48.206;16.402;2023-02-04T12:33:54;101135.63;;;4.19;45.60
13869;BME280;7004;48.206;16.402;2023-02-04T12:36:21;101131.19;;;4.23;46.73
13869;BME280;7004;48.206;16.402;2023-02-04T12:38:47;101136.25;;;3.73;47.69
13869;BME280;7004;48.206;16.402;2023-02-04T12:41:14;101127.31;;;4.48;46.87
13869;BME280;7004;48.206;16.402;2023-02-04T12:43:40;101139.69;;;4.40;46.57
13869;BME280;7004;48.206;16.402;2023-02-04T12:46:06;101131.94;;;4.34;45.23
13869;BME280;7004;48.206;16.402;2023-02-04T12:48:32;101142.94;;;3.94;44.68
13869;BME280;7004;48.206;16.402;2023-02-04T12:50:58;101146.50;;;4.52;44.68
13869;BME280;7004;48.206;16.402;2023-02-04T12:53:24;101150.88;;;5.49;43.46
13869;BME280;7004;48.206;16.402;2023-02-04T12:55:50;101156.16;;;4.99;42.19
13869;BME280;7004;48.206;16.402;2023-02-04T12:58:16;101151.78;;;4.49;41.29
13869;BME280;7004;48.206;16.402;2023-02-04T13:00:42;101165.53;;;5.14;41.76
13869;BME280;7004;48.206;16.402;2023-02-04T13:03:09;101145.63;;;5.02;41.58
13869;BME280;7004;48.206;16.402;2023-02-04T13:05:35;101162.25;;;4.47;42.81
13869;BME280;7004;48.206;16.402;2023-02-04T13:08:02;101165.00;;;4.38;42.04
13869;BME280;7004;48.206;16.402;2023-02-04T13:10:28;101176.81;;;4.08;42.11
13869;BME280;7004;48.206;16.402;2023-02-04T13:12:54;101175.69;;;3.55;42.70
13869;BME280;7004;48.206;16.402;2023-02-04T13:15:20;101170.72;;;4.04;43.65
13869;BME280;7004;48.206;16.402;2023-02-04T13:17:46;101171.88;;;3.85;42.58
13869;BME280;7004;48.206;16.402;2023-02-04T13:20:13;101194.22;;;4.10;42.28
13869;BME280;7004;48.206;16.402;2023-02-04T13:22:40;101184.91;;;3.88;42.62